sensor_id;sensor_type;location;lat;lon;timestamp;pressure;altitude;pressure_sealevel;temperature;humidity
11912;BME280;6016;41.928;25.556;2023-04-04T00:01:24;97824.97;;;11.90;96.97
11912;BME280;6016;41.928;25.556;2023-04-04T00:03:51;97853.31;;;12.34;96.99
11912;BME280;6016;41.928;25.556;2023-04-04T00:06:18;97859.31;;;12.43;97.22
11912;BME280;6016;41.928;25.556;2023-04-04T00:08:45;97861.41;;;12.48;96.37
11912;BME280;6016;41.928;25.556;2023-04-04T00:11:13;97490.84;;;10.20;95.77
11912;BME280;6016;41.928;25.556;2023-04-04T00:13:40;97818.28;;;12.32;96.24
11912;BME280;6016;41.928;25.556;2023-04-04T00:16:07;97814.09;;;12.23;95.72
11912;BME280;6016;41.928;25.556;2023-04-04T00:18:34;97844.88;;;12.61;95.80
11912;BME280;6016;41.928;25.556;2023-04-04T00:21:01;97847.44;;;12.69;94.79
11912;BME280;6016;41.928;25.556;2023-04-04T00:23:28;97845.44;;;12.71;94.87
11912;BME280;6016;41.928;25.556;2023-04-04T00:25:55;97837.56;;;12.78;94.18
11912;BME280;6016;41.928;25.556;2023-04-04T00:28:23;97842.47;;;12.81;94.46
11912;BME280;6016;41.928;25.556;2023-04-04T00:30:50;97822.94;;;12.82;93.28
11912;BME280;6016;41.928;25.556;2023-04-04T00:33:17;97833.34;;;12.84;93.56
11912;BME280;6016;41.928;25.556;2023-04-04T00:35:43;97835.44;;;12.88;92.98
11912;BME280;6016;41.928;25.556;2023-04-04T00:38:10;97842.75;;;12.86;92.95
11912;BME280;6016;41.928;25.556;2023-04-04T00:40:40;97571.97;;;11.10;93.16
11912;BME280;6016;41.928;25.556;2023-04-04T00:43:08;97832.50;;;12.46;93.44
11912;BME280;6016;41.928;25.556;2023-04-04T00:45:36;97869.31;;;12.78;93.46
11912;BME280;6016;41.928;25.556;2023-04-04T00:48:03;97869.69;;;12.75;93.84
11912;BME280;6016;41.928;25.556;2023-04-04T00:50:30;97822.75;;;12.32;94.39
11912;BME280;6016;41.928;25.556;2023-04-04T00:52:57;97845.09;;;12.44;95.00
11912;BME280;6016;41.928;25.556;2023-04-04T00:55:24;97797.44;;;12.07;95.67
11912;BME280;6016;41.928;25.556;2023-04-04T00:57:52;97661.72;;;11.25;94.40
11912;BME280;6016;41.928;25.556;2023-04-04T01:00:19;97867.88;;;12.60;95.08
11912;BME280;6016;41.928;25.556;2023-04-04T01:02:47;97853.81;;;12.45;95.52
11912;BME280;6016;41.928;25.556;2023-04-04T01:05:15;97781.19;;;12.10;95.25
11912;BME280;6016;41.928;25.556;2023-04-04T01:07:41;97827.28;;;12.38;94.72
11912;BME280;6016;41.928;25.556;2023-04-04T01:10:09;97800.25;;;12.21;95.73
11912;BME280;6016;41.928;25.556;2023-04-04T01:12:37;97840.34;;;12.55;96.29
11912;BME280;6016;41.928;25.556;2023-04-04T01:15:05;97746.97;;;11.94;96.06
11912;BME280;6016;41.928;25.556;2023-04-04T01:17:32;97834.06;;;12.56;95.01
11912;BME280;6016;41.928;25.556;2023-04-04T01:20:04;97762.56;;;12.19;94.69
11912;BME280;6016;41.928;25.556;2023-04-04T01:22:32;97820.91;;;12.62;94.34
11912;BME280;6016;41.928;25.556;2023-04-04T01:25:01;97814.06;;;12.53;94.53
11912;BME280;6016;41.928;25.556;2023-04-04T01:27:31;97608.34;;;11.30;94.25
11912;BME280;6016;41.928;25.556;2023-04-04T01:29:58;97811.41;;;12.53;94.67
11912;BME280;6016;41.928;25.556;2023-04-04T01:32:29;97771.59;;;12.24;95.04
11912;BME280;6016;41.928;25.556;2023-04-04T01:35:04;97621.28;;;11.24;95.18
11912;BME280;6016;41.928;25.556;2023-04-04T01:37:35;97783.34;;;12.37;94.51
11912;BME280;6016;41.928;25.556;2023-04-04T01:40:09;97789.38;;;12.31;95.21
11912;BME280;6016;41.928;25.556;2023-04-04T01:42:40;97775.78;;;12.19;95.58
11912;BME280;6016;41.928;25.556;2023-04-04T01:45:09;97809.38;;;12.33;96.49
11912;BME280;6016;41.928;25.556;2023-04-04T01:47:37;97760.66;;;11.98;96.18
11912;BME280;6016;41.928;25.556;2023-04-04T01:50:06;97800.69;;;12.24;96.38
11912;BME280;6016;41.928;25.556;2023-04-04T01:52:33;97811.16;;;12.18;95.55
11912;BME280;6016;41.928;25.556;2023-04-04T01:55:00;97741.06;;;11.77;96.21
11912;BME280;6016;41.928;25.556;2023-04-04T01:57:27;97767.38;;;11.85;97.64
11912;BME280;6016;41.928;25.556;2023-04-04T01:59:56;97754.38;;;11.84;97.74
11912;BME280;6016;41.928;25.556;2023-04-04T02:02:23;97802.97;;;12.13;97.09
11912;BME280;6016;41.928;25.556;2023-04-04T02:04:49;97780.97;;;11.82;97.43
11912;BME280;6016;41.928;25.556;2023-04-04T02:07:16;97447.09;;;9.96;96.13
11912;BME280;6016;41.928;25.556;2023-04-04T02:09:43;97777.97;;;12.00;96.79
11912;BME280;6016;41.928;25.556;2023-04-04T02:12:10;97780.91;;;12.05;96.76
11912;BME280;6016;41.928;25.556;2023-04-04T02:14:37;97731.69;;;11.74;96.52
11912;BME280;6016;41.928;25.556;2023-04-04T02:17:06;97705.97;;;11.68;95.73
11912;BME280;6016;41.928;25.556;2023-04-04T02:19:33;97641.97;;;11.36;96.72
11912;BME280;6016;41.928;25.556;2023-04-04T02:22:00;97160.44;;;8.48;96.69
11912;BME280;6016;41.928;25.556;2023-04-04T02:24:27;97725.13;;;12.00;96.51
11912;BME280;6016;41.928;25.556;2023-04-04T02:26:53;97719.56;;;12.10;96.24
11912;BME280;6016;41.928;25.556;2023-04-04T02:29:20;97758.28;;;12.33;94.91
11912;BME280;6016;41.928;25.556;2023-04-04T02:31:47;97725.22;;;12.22;95.10
11912;BME280;6016;41.928;25.556;2023-04-04T02:34:16;97668.38;;;11.96;94.75
11912;BME280;6016;41.928;25.556;2023-04-04T02:36:43;97747.97;;;12.38;94.63
11912;BME280;6016;41.928;25.556;2023-04-04T02:39:10;97646.06;;;11.84;94.87
11912;BME280;6016;41.928;25.556;2023-04-04T02:41:37;97734.75;;;12.38;94.22
11912;BME280;6016;41.928;25.556;2023-04-04T02:44:04;97670.34;;;11.94;94.47
11912;BME280;6016;41.928;25.556;2023-04-04T02:46:30;97698.78;;;12.22;94.27
11912;BME280;6016;41.928;25.556;2023-04-04T02:48:57;97647.78;;;11.91;94.20
11912;BME280;6016;41.928;25.556;2023-04-04T02:51:27;97688.56;;;12.19;93.89
11912;BME280;6016;41.928;25.556;2023-04-04T02:53:54;97701.69;;;12.27;94.10
11912;BME280;6016;41.928;25.556;2023-04-04T02:56:21;97654.41;;;11.87;94.18
11912;BME280;6016;41.928;25.556;2023-04-04T02:58:48;97717.69;;;12.41;94.23
11912;BME280;6016;41.928;25.556;2023-04-04T03:01:15;97740.78;;;12.47;93.84
11912;BME280;6016;41.928;25.556;2023-04-04T03:03:42;97739.22;;;12.52;93.74
11912;BME280;6016;41.928;25.556;2023-04-04T03:06:08;97654.78;;;11.99;94.28
11912;BME280;6016;41.928;25.556;2023-04-04T03:08:37;97705.94;;;12.43;94.16
11912;BME280;6016;41.928;25.556;2023-04-04T03:11:04;97681.09;;;12.22;93.79
11912;BME280;6016;41.928;25.556;2023-04-04T03:13:30;97745.00;;;12.63;94.05
11912;BME280;6016;41.928;25.556;2023-04-04T03:15:59;97738.84;;;12.41;94.50
11912;BME280;6016;41.928;25.556;2023-04-04T03:18:27;97737.22;;;12.40;93.88
11912;BME280;6016;41.928;25.556;2023-04-04T03:20:54;97738.47;;;12.44;94.73
11912;BME280;6016;41.928;25.556;2023-04-04T03:23:21;97727.03;;;12.21;94.61
11912;BME280;6016;41.928;25.556;2023-04-04T03:25:49;97742.44;;;12.33;94.48
11912;BME280;6016;41.928;25.556;2023-04-04T03:28:16;97664.97;;;11.87;94.26
11912;BME280;6016;41.928;25.556;2023-04-04T03:30:43;97644.72;;;11.58;95.29
11912;BME280;6016;41.928;25.556;2023-04-04T03:33:09;97741.69;;;12.39;94.62
11912;BME280;6016;41.928;25.556;2023-04-04T03:35:37;97697.59;;;11.94;95.34
11912;BME280;6016;41.928;25.556;2023-04-04T03:38:05;97722.97;;;12.04;94.55
11912;BME280;6016;41.928;25.556;2023-04-04T03:40:32;97718.38;;;12.13;94.85
11912;BME280;6016;41.928;25.556;2023-04-04T03:43:00;97761.44;;;12.58;94.62
11912;BME280;6016;41.928;25.556;2023-04-04T03:45:27;97771.91;;;12.66;94.58
11912;BME280;6016;41.928;25.556;2023-04-04T03:47:54;97591.22;;;11.56;93.71
11912;BME280;6016;41.928;25.556;2023-04-04T03:50:21;97708.22;;;12.31;94.01
11912;BME280;6016;41.928;25.556;2023-04-04T03:52:48;97759.22;;;12.62;93.81
11912;BME280;6016;41.928;25.556;2023-04-04T03:55:15;97646.31;;;11.89;93.67
11912;BME280;6016;41.928;25.556;2023-04-04T03:57:42;97732.63;;;12.48;93.92
11912;BME280;6016;41.928;25.556;2023-04-04T04:00:11;97763.41;;;12.71;93.77
11912;BME280;6016;41.928;25.556;2023-04-04T04:02:38;97718.31;;;12.43;93.47
11912;BME280;6016;41.928;25.556;2023-04-04T04:05:06;97767.97;;;12.77;93.26
11912;BME280;6016;41.928;25.556;2023-04-04T04:07:33;97768.38;;;12.81;93.38
11912;BME280;6016;41.928;25.556;2023-04-04T04:10:00;97553.19;;;11.50;93.18
11912;BME280;6016;41.928;25.556;2023-04-04T04:12:27;97776.84;;;12.91;92.58
11912;BME280;6016;41.928;25.556;2023-04-04T04:14:54;97746.81;;;12.77;93.11
11912;BME280;6016;41.928;25.556;2023-04-04T04:17:22;97769.59;;;13.00;92.16
11912;BME280;6016;41.928;25.556;2023-04-04T04:19:49;97763.44;;;12.93;91.96
11912;BME280;6016;41.928;25.556;2023-04-04T04:22:16;97766.09;;;12.93;92.94
11912;BME280;6016;41.928;25.556;2023-04-04T04:24:43;97767.72;;;12.94;92.68
11912;BME280;6016;41.928;25.556;2023-04-04T04:27:10;97749.69;;;12.83;92.37
11912;BME280;6016;41.928;25.556;2023-04-04T04:29:37;97663.34;;;12.38;92.07
11912;BME280;6016;41.928;25.556;2023-04-04T04:32:03;97623.16;;;12.06;91.36
11912;BME280;6016;41.928;25.556;2023-04-04T04:34:32;97775.66;;;12.94;92.29
11912;BME280;6016;41.928;25.556;2023-04-04T04:36:59;97773.41;;;12.91;92.52
11912;BME280;6016;41.928;25.556;2023-04-04T04:39:25;97757.81;;;12.81;91.55
11912;BME280;6016;41.928;25.556;2023-04-04T04:41:52;97777.09;;;12.75;93.03
11912;BME280;6016;41.928;25.556;2023-04-04T04:44:19;97747.09;;;12.68;91.74
11912;BME280;6016;41.928;25.556;2023-04-04T04:46:46;97718.25;;;12.36;93.25
11912;BME280;6016;41.928;25.556;2023-04-04T04:49:13;97771.59;;;12.76;93.13
11912;BME280;6016;41.928;25.556;2023-04-04T04:51:41;97776.00;;;12.69;93.60
11912;BME280;6016;41.928;25.556;2023-04-04T04:54:08;97761.31;;;12.30;92.90
11912;BME280;6016;41.928;25.556;2023-04-04T04:56:35;97751.38;;;12.69;93.07
11912;BME280;6016;41.928;25.556;2023-04-04T04:59:02;97749.44;;;12.77;92.96
11912;BME280;6016;41.928;25.556;2023-04-04T05:01:31;97774.03;;;12.93;93.46
11912;BME280;6016;41.928;25.556;2023-04-04T05:03:58;97776.41;;;12.88;93.27
11912;BME280;6016;41.928;25.556;2023-04-04T05:06:24;97668.56;;;12.09;93.99
11912;BME280;6016;41.928;25.556;2023-04-04T05:08:53;97774.19;;;12.91;93.78
11912;BME280;6016;41.928;25.556;2023-04-04T05:11:19;97654.19;;;12.19;92.97
11912;BME280;6016;41.928;25.556;2023-04-04T05:13:47;97751.56;;;12.89;92.87
11912;BME280;6016;41.928;25.556;2023-04-04T05:16:14;97776.41;;;13.09;93.01
11912;BME280;6016;41.928;25.556;2023-04-04T05:18:41;97807.81;;;13.13;92.62
11912;BME280;6016;41.928;25.556;2023-04-04T05:21:08;97652.22;;;12.43;92.63
11912;BME280;6016;41.928;25.556;2023-04-04T05:23:34;97752.78;;;13.08;92.20
11912;BME280;6016;41.928;25.556;2023-04-04T05:26:03;97772.69;;;13.26;91.87
11912;BME280;6016;41.928;25.556;2023-04-04T05:28:30;97773.81;;;12.94;91.91
11912;BME280;6016;41.928;25.556;2023-04-04T05:30:56;97783.63;;;13.16;92.22
11912;BME280;6016;41.928;25.556;2023-04-04T05:33:23;97736.75;;;12.94;92.12
11912;BME280;6016;41.928;25.556;2023-04-04T05:35:50;97787.56;;;13.27;91.88
11912;BME280;6016;41.928;25.556;2023-04-04T05:38:17;97113.66;;;8.90;91.32
11912;BME280;6016;41.928;25.556;2023-04-04T05:40:44;97797.09;;;13.21;91.07
11912;BME280;6016;41.928;25.556;2023-04-04T05:43:12;97703.19;;;12.51;91.63
11912;BME280;6016;41.928;25.556;2023-04-04T05:45:39;97812.69;;;13.09;91.97
11912;BME280;6016;41.928;25.556;2023-04-04T05:48:06;97798.91;;;12.99;91.74
11912;BME280;6016;41.928;25.556;2023-04-04T05:50:33;97784.72;;;12.85;92.52
11912;BME280;6016;41.928;25.556;2023-04-04T05:53:00;97796.28;;;12.99;92.43
11912;BME280;6016;41.928;25.556;2023-04-04T05:55:27;97775.31;;;12.82;92.96
11912;BME280;6016;41.928;25.556;2023-04-04T05:57:54;97788.91;;;12.94;92.40
11912;BME280;6016;41.928;25.556;2023-04-04T06:00:22;97710.47;;;12.49;93.15
11912;BME280;6016;41.928;25.556;2023-04-04T06:02:49;97759.44;;;12.82;93.38
11912;BME280;6016;41.928;25.556;2023-04-04T06:05:17;97663.22;;;12.24;92.37
11912;BME280;6016;41.928;25.556;2023-04-04T06:07:44;97783.56;;;13.09;92.76
11912;BME280;6016;41.928;25.556;2023-04-04T06:10:11;97784.53;;;13.08;92.45
11912;BME280;6016;41.928;25.556;2023-04-04T06:12:38;97762.66;;;12.99;92.44
11912;BME280;6016;41.928;25.556;2023-04-04T06:15:06;97763.69;;;12.98;91.72
11912;BME280;6016;41.928;25.556;2023-04-04T06:17:34;97769.94;;;13.12;92.91
11912;BME280;6016;41.928;25.556;2023-04-04T06:20:01;97694.63;;;12.71;92.49
11912;BME280;6016;41.928;25.556;2023-04-04T06:22:29;97665.63;;;12.63;92.34
11912;BME280;6016;41.928;25.556;2023-04-04T06:24:56;97642.47;;;12.43;91.87
11912;BME280;6016;41.928;25.556;2023-04-04T06:27:23;97602.81;;;12.43;91.74
11912;BME280;6016;41.928;25.556;2023-04-04T06:29:50;97755.19;;;13.46;91.67
11912;BME280;6016;41.928;25.556;2023-04-04T06:32:16;97706.06;;;13.22;90.64
11912;BME280;6016;41.928;25.556;2023-04-04T06:34:45;97717.91;;;13.26;90.71
11912;BME280;6016;41.928;25.556;2023-04-04T06:37:12;97714.44;;;13.26;90.78
11912;BME280;6016;41.928;25.556;2023-04-04T06:39:38;97770.56;;;13.64;91.13
11912;BME280;6016;41.928;25.556;2023-04-04T06:42:05;97766.94;;;13.66;92.08
11912;BME280;6016;41.928;25.556;2023-04-04T06:44:32;97383.31;;;11.21;92.04
11912;BME280;6016;41.928;25.556;2023-04-04T06:46:59;97762.97;;;13.55;91.78
11912;BME280;6016;41.928;25.556;2023-04-04T06:49:27;97768.28;;;13.55;91.40
11912;BME280;6016;41.928;25.556;2023-04-04T06:51:55;97641.03;;;12.84;91.54
11912;BME280;6016;41.928;25.556;2023-04-04T06:54:23;97748.66;;;13.49;91.29
11912;BME280;6016;41.928;25.556;2023-04-04T06:56:50;97736.69;;;13.53;91.40
11912;BME280;6016;41.928;25.556;2023-04-04T06:59:18;97767.06;;;13.86;91.66
11912;BME280;6016;41.928;25.556;2023-04-04T07:01:45;97715.19;;;13.70;91.37
11912;BME280;6016;41.928;25.556;2023-04-04T07:04:11;97709.28;;;13.68;90.40
11912;BME280;6016;41.928;25.556;2023-04-04T07:06:38;97722.75;;;13.73;89.53
11912;BME280;6016;41.928;25.556;2023-04-04T07:09:06;97760.66;;;14.09;89.35
11912;BME280;6016;41.928;25.556;2023-04-04T07:11:33;97754.16;;;14.11;89.43
11912;BME280;6016;41.928;25.556;2023-04-04T07:14:00;97759.72;;;14.16;89.08
11912;BME280;6016;41.928;25.556;2023-04-04T07:16:27;97675.59;;;13.61;90.60
11912;BME280;6016;41.928;25.556;2023-04-04T07:18:54;97754.44;;;14.23;89.32
11912;BME280;6016;41.928;25.556;2023-04-04T07:21:21;97592.63;;;13.26;89.60
11912;BME280;6016;41.928;25.556;2023-04-04T07:23:47;97619.09;;;13.47;89.60
11912;BME280;6016;41.928;25.556;2023-04-04T07:26:16;97679.19;;;13.82;88.40
11912;BME280;6016;41.928;25.556;2023-04-04T07:28:43;97757.91;;;14.30;88.41
11912;BME280;6016;41.928;25.556;2023-04-04T07:31:10;97751.13;;;14.21;88.80
11912;BME280;6016;41.928;25.556;2023-04-04T07:33:36;97706.16;;;13.92;88.61
11912;BME280;6016;41.928;25.556;2023-04-04T07:36:04;97733.47;;;13.93;89.46
11912;BME280;6016;41.928;25.556;2023-04-04T07:38:31;97729.56;;;13.89;89.25
11912;BME280;6016;41.928;25.556;2023-04-04T07:40:57;97761.91;;;14.13;89.04
11912;BME280;6016;41.928;25.556;2023-04-04T07:43:26;97745.47;;;13.89;88.57
11912;BME280;6016;41.928;25.556;2023-04-04T07:45:53;97745.03;;;13.85;87.93
11912;BME280;6016;41.928;25.556;2023-04-04T07:48:20;97750.97;;;13.87;89.63
11912;BME280;6016;41.928;25.556;2023-04-04T07:50:46;97656.06;;;13.34;89.58
11912;BME280;6016;41.928;25.556;2023-04-04T07:53:13;97747.63;;;14.07;89.27
11912;BME280;6016;41.928;25.556;2023-04-04T07:55:40;97732.13;;;14.11;89.31
11912;BME280;6016;41.928;25.556;2023-04-04T07:58:07;97760.63;;;14.44;88.22
11912;BME280;6016;41.928;25.556;2023-04-04T08:00:35;97662.91;;;13.92;87.58
11912;BME280;6016;41.928;25.556;2023-04-04T08:03:02;97750.69;;;14.66;88.15
11912;BME280;6016;41.928;25.556;2023-04-04T08:05:29;97687.91;;;14.25;85.48
11912;BME280;6016;41.928;25.556;2023-04-04T08:07:56;97761.91;;;14.55;85.25
11912;BME280;6016;41.928;25.556;2023-04-04T08:10:23;97703.75;;;14.04;85.53
11912;BME280;6016;41.928;25.556;2023-04-04T08:12:52;97759.16;;;14.34;86.38
11912;BME280;6016;41.928;25.556;2023-04-04T08:15:18;97754.09;;;14.40;86.54
11912;BME280;6016;41.928;25.556;2023-04-04T08:17:46;97667.00;;;13.95;86.14
11912;BME280;6016;41.928;25.556;2023-04-04T08:20:14;97758.00;;;14.57;84.16
11912;BME280;6016;41.928;25.556;2023-04-04T08:22:42;97758.44;;;14.61;83.81
11912;BME280;6016;41.928;25.556;2023-04-04T08:25:09;97712.69;;;14.45;84.25
11912;BME280;6016;41.928;25.556;2023-04-04T08:27:38;97768.97;;;14.89;79.98
11912;BME280;6016;41.928;25.556;2023-04-04T08:30:09;97760.84;;;15.04;81.97
11912;BME280;6016;41.928;25.556;2023-04-04T08:32:35;97760.63;;;15.40;82.79
11912;BME280;6016;41.928;25.556;2023-04-04T08:35:04;97763.03;;;15.88;80.03
11912;BME280;6016;41.928;25.556;2023-04-04T08:37:31;97548.00;;;14.87;75.60
11912;BME280;6016;41.928;25.556;2023-04-04T08:39:59;97714.53;;;16.13;76.59
11912;BME280;6016;41.928;25.556;2023-04-04T08:42:27;97728.25;;;16.10;73.96
11912;BME280;6016;41.928;25.556;2023-04-04T08:44:58;97744.09;;;16.44;77.17
11912;BME280;6016;41.928;25.556;2023-04-04T08:47:29;97777.38;;;16.67;75.43
11912;BME280;6016;41.928;25.556;2023-04-04T08:49:58;97779.97;;;16.80;75.40
11912;BME280;6016;41.928;25.556;2023-04-04T08:52:27;97787.22;;;17.05;74.14
11912;BME280;6016;41.928;25.556;2023-04-04T08:54:55;97790.41;;;17.21;72.01
11912;BME280;6016;41.928;25.556;2023-04-04T08:57:23;97794.09;;;17.20;71.64
11912;BME280;6016;41.928;25.556;2023-04-04T08:59:49;97769.22;;;16.94;71.31
11912;BME280;6016;41.928;25.556;2023-04-04T09:02:22;97801.22;;;16.87;70.35
11912;BME280;6016;41.928;25.556;2023-04-04T09:04:51;97708.38;;;16.20;71.09
11912;BME280;6016;41.928;25.556;2023-04-04T09:07:18;97794.38;;;16.66;70.92
11912;BME280;6016;41.928;25.556;2023-04-04T09:09:48;97795.50;;;16.44;71.63
11912;BME280;6016;41.928;25.556;2023-04-04T09:12:17;97805.34;;;16.30;72.82
11912;BME280;6016;41.928;25.556;2023-04-04T09:14:45;97808.03;;;16.24;72.09
11912;BME280;6016;41.928;25.556;2023-04-04T09:17:13;97803.16;;;16.14;75.04
11912;BME280;6016;41.928;25.556;2023-04-04T09:19:40;97802.09;;;16.22;74.31
11912;BME280;6016;41.928;25.556;2023-04-04T09:22:06;97800.06;;;16.17;71.53
11912;BME280;6016;41.928;25.556;2023-04-04T09:24:38;97806.84;;;16.13;72.22
11912;BME280;6016;41.928;25.556;2023-04-04T09:27:08;97718.94;;;15.40;73.96
11912;BME280;6016;41.928;25.556;2023-04-04T09:29:36;97782.94;;;15.93;74.61
11912;BME280;6016;41.928;25.556;2023-04-04T09:32:06;97799.28;;;15.96;76.18
11912;BME280;6016;41.928;25.556;2023-04-04T09:34:33;97792.72;;;15.99;75.85
11912;BME280;6016;41.928;25.556;2023-04-04T09:37:02;97636.41;;;15.01;77.16
11912;BME280;6016;41.928;25.556;2023-04-04T09:39:29;97777.06;;;16.36;76.00
11912;BME280;6016;41.928;25.556;2023-04-04T09:41:57;97784.06;;;16.83;73.67
11912;BME280;6016;41.928;25.556;2023-04-04T09:44:27;97776.56;;;17.05;71.95
11912;BME280;6016;41.928;25.556;2023-04-04T09:49:47;97781.81;;;17.19;72.86
11912;BME280;6016;41.928;25.556;2023-04-04T09:52:17;97655.19;;;16.52;72.69
11912;BME280;6016;41.928;25.556;2023-04-04T09:54:44;97778.16;;;17.89;72.57
11912;BME280;6016;41.928;25.556;2023-04-04T09:57:11;97785.84;;;18.23;71.10
11912;BME280;6016;41.928;25.556;2023-04-04T09:59:39;97723.75;;;17.71;68.06
11912;BME280;6016;41.928;25.556;2023-04-04T10:02:08;97771.50;;;17.98;69.63
11912;BME280;6016;41.928;25.556;2023-04-04T10:04:36;97733.47;;;17.84;70.82
11912;BME280;6016;41.928;25.556;2023-04-04T10:07:03;97765.16;;;18.37;70.95
11912;BME280;6016;41.928;25.556;2023-04-04T10:09:31;97768.66;;;18.37;69.00
11912;BME280;6016;41.928;25.556;2023-04-04T10:12:08;97771.00;;;18.27;69.42
11912;BME280;6016;41.928;25.556;2023-04-04T10:14:36;97692.78;;;17.52;68.62
11912;BME280;6016;41.928;25.556;2023-04-04T10:17:07;97759.56;;;17.82;69.51
11912;BME280;6016;41.928;25.556;2023-04-04T10:19:36;97768.44;;;17.95;70.23
11912;BME280;6016;41.928;25.556;2023-04-04T10:22:03;97726.00;;;17.49;71.30
11912;BME280;6016;41.928;25.556;2023-04-04T10:24:30;97732.88;;;17.38;70.40
11912;BME280;6016;41.928;25.556;2023-04-04T10:26:57;97771.88;;;17.58;71.49
11912;BME280;6016;41.928;25.556;2023-04-04T10:29:25;97739.75;;;17.21;70.87
11912;BME280;6016;41.928;25.556;2023-04-04T10:31:56;97750.66;;;17.19;73.45
11912;BME280;6016;41.928;25.556;2023-04-04T10:34:41;97764.63;;;17.40;71.59
11912;BME280;6016;41.928;25.556;2023-04-04T10:37:11;97765.22;;;17.42;71.15
11912;BME280;6016;41.928;25.556;2023-04-04T10:39:42;97760.59;;;17.30;71.17
11912;BME280;6016;41.928;25.556;2023-04-04T10:42:13;97754.84;;;17.34;70.78
11912;BME280;6016;41.928;25.556;2023-04-04T10:44:42;97663.00;;;16.79;69.39
11912;BME280;6016;41.928;25.556;2023-04-04T10:47:14;97756.38;;;17.48;70.60
11912;BME280;6016;41.928;25.556;2023-04-04T10:49:44;97765.78;;;17.51;69.88
11912;BME280;6016;41.928;25.556;2023-04-04T10:52:12;97700.38;;;16.97;69.48
11912;BME280;6016;41.928;25.556;2023-04-04T10:54:40;97740.50;;;17.35;71.08
11912;BME280;6016;41.928;25.556;2023-04-04T10:57:09;97768.88;;;17.48;71.46
11912;BME280;6016;41.928;25.556;2023-04-04T10:59:57;97721.13;;;17.21;70.71
11912;BME280;6016;41.928;25.556;2023-04-04T11:02:46;97704.91;;;17.22;69.68
11912;BME280;6016;41.928;25.556;2023-04-04T11:05:26;97758.66;;;17.70;68.77
11912;BME280;6016;41.928;25.556;2023-04-04T11:07:57;97706.22;;;17.38;70.05
11912;BME280;6016;41.928;25.556;2023-04-04T11:10:25;97752.41;;;17.57;68.59
11912;BME280;6016;41.928;25.556;2023-04-04T11:12:55;97751.69;;;17.43;70.92
11912;BME280;6016;41.928;25.556;2023-04-04T11:15:23;97750.75;;;17.31;72.89
11912;BME280;6016;41.928;25.556;2023-04-04T11:17:57;97755.84;;;17.39;72.54
11912;BME280;6016;41.928;25.556;2023-04-04T11:20:31;97753.44;;;17.31;71.92
11912;BME280;6016;41.928;25.556;2023-04-04T11:23:06;97753.88;;;17.28;74.33
11912;BME280;6016;41.928;25.556;2023-04-04T11:25:35;97739.16;;;17.19;72.64
11912;BME280;6016;41.928;25.556;2023-04-04T11:28:11;97761.81;;;17.35;73.42
11912;BME280;6016;41.928;25.556;2023-04-04T11:30:42;97709.16;;;16.98;73.88
11912;BME280;6016;41.928;25.556;2023-04-04T11:33:25;97746.91;;;17.27;73.33
11912;BME280;6016;41.928;25.556;2023-04-04T11:36:03;97747.38;;;17.17;74.05
11912;BME280;6016;41.928;25.556;2023-04-04T11:38:30;97742.44;;;17.21;74.02
11912;BME280;6016;41.928;25.556;2023-04-04T11:40:58;97725.50;;;17.08;73.86
11912;BME280;6016;41.928;25.556;2023-04-04T11:43:25;97742.13;;;17.04;73.17
11912;BME280;6016;41.928;25.556;2023-04-04T11:45:53;97745.66;;;16.97;72.42
11912;BME280;6016;41.928;25.556;2023-04-04T11:48:21;97744.66;;;16.92;75.16
11912;BME280;6016;41.928;25.556;2023-04-04T11:50:48;97728.94;;;16.83;74.76
11912;BME280;6016;41.928;25.556;2023-04-04T11:53:17;97732.22;;;16.79;73.66
11912;BME280;6016;41.928;25.556;2023-04-04T11:55:47;97736.13;;;16.83;72.79
11912;BME280;6016;41.928;25.556;2023-04-04T11:58:16;97736.16;;;16.76;72.96
11912;BME280;6016;41.928;25.556;2023-04-04T12:00:44;97733.69;;;16.74;72.77
11912;BME280;6016;41.928;25.556;2023-04-04T12:03:14;97734.94;;;16.72;72.82
11912;BME280;6016;41.928;25.556;2023-04-04T12:05:43;97738.19;;;16.74;73.13
11912;BME280;6016;41.928;25.556;2023-04-04T12:08:12;97735.13;;;16.77;74.56
11912;BME280;6016;41.928;25.556;2023-04-04T12:10:41;97682.75;;;16.32;75.11
11912;BME280;6016;41.928;25.556;2023-04-04T12:13:08;97697.00;;;16.44;75.60
11912;BME280;6016;41.928;25.556;2023-04-04T12:15:36;97730.72;;;16.57;74.71
11912;BME280;6016;41.928;25.556;2023-04-04T12:18:05;97587.03;;;15.66;75.25
11912;BME280;6016;41.928;25.556;2023-04-04T12:20:33;97627.25;;;15.90;76.27
11912;BME280;6016;41.928;25.556;2023-04-04T12:23:00;97662.03;;;15.75;77.87
11912;BME280;6016;41.928;25.556;2023-04-04T12:25:27;97724.47;;;16.31;77.43
11912;BME280;6016;41.928;25.556;2023-04-04T12:28:00;97715.84;;;16.43;77.68
11912;BME280;6016;41.928;25.556;2023-04-04T12:30:28;97712.16;;;16.44;77.79
11912;BME280;6016;41.928;25.556;2023-04-04T12:32:56;97725.63;;;16.49;77.05
11912;BME280;6016;41.928;25.556;2023-04-04T12:35:23;97720.13;;;16.44;77.60
11912;BME280;6016;41.928;25.556;2023-04-04T12:38:00;97716.69;;;16.30;78.95
11912;BME280;6016;41.928;25.556;2023-04-04T12:40:35;97657.31;;;15.84;77.15
11912;BME280;6016;41.928;25.556;2023-04-04T12:43:07;97593.84;;;15.35;79.75
11912;BME280;6016;41.928;25.556;2023-04-04T12:45:38;97690.22;;;15.96;81.16
11912;BME280;6016;41.928;25.556;2023-04-04T12:48:10;97694.34;;;15.85;81.62
11912;BME280;6016;41.928;25.556;2023-04-04T12:50:53;97721.94;;;15.98;80.06
11912;BME280;6016;41.928;25.556;2023-04-04T12:53:22;97637.38;;;15.41;79.75
11912;BME280;6016;41.928;25.556;2023-04-04T12:55:50;97730.34;;;16.01;79.81
11912;BME280;6016;41.928;25.556;2023-04-04T12:58:20;97731.56;;;15.99;79.56
11912;BME280;6016;41.928;25.556;2023-04-04T13:00:50;97574.13;;;14.90;79.22
11912;BME280;6016;41.928;25.556;2023-04-04T13:03:19;97735.88;;;15.93;80.33
11912;BME280;6016;41.928;25.556;2023-04-04T13:05:47;97740.75;;;16.03;81.20
11912;BME280;6016;41.928;25.556;2023-04-04T13:08:15;97692.09;;;15.82;82.21